createdAt,value
2022-11-09T00:04:06.550Z,0.00
2022-11-09T00:09:08.202Z,0.00
2022-11-09T00:14:06.401Z,0.00
2022-11-09T00:19:06.331Z,0.00
2022-11-09T00:24:06.274Z,0.00
2022-11-09T00:29:06.197Z,0.00
2022-11-09T00:34:06.156Z,0.00
2022-11-09T00:39:06.065Z,0.00
2022-11-09T00:44:06.005Z,0.00
2022-11-09T00:49:05.952Z,0.00
2022-11-09T00:54:05.874Z,0.00
2022-11-09T00:59:05.803Z,0.00
2022-11-09T01:04:05.740Z,0.00
2022-11-09T01:09:05.668Z,0.00
2022-11-09T01:14:05.610Z,0.00
2022-11-09T01:19:05.534Z,0.00
2022-11-09T01:24:05.477Z,0.00
2022-11-09T01:29:05.403Z,0.00
2022-11-09T01:34:05.345Z,0.00
2022-11-09T01:39:05.280Z,0.00
2022-11-09T01:44:05.212Z,0.00
2022-11-09T01:49:05.146Z,0.00
2022-11-09T01:54:05.079Z,0.00
2022-11-09T01:59:05.017Z,0.00
2022-11-09T02:04:04.947Z,0.00
2022-11-09T02:09:04.883Z,0.00
2022-11-09T02:14:04.814Z,0.00
2022-11-09T02:19:04.739Z,0.00
2022-11-09T02:24:04.683Z,0.00
2022-11-09T02:29:04.621Z,0.00
2022-11-09T02:34:04.548Z,0.00
2022-11-09T02:39:04.476Z,0.00
2022-11-09T02:44:04.432Z,0.00
2022-11-09T02:49:04.343Z,0.00
2022-11-09T02:54:04.284Z,0.00
2022-11-09T02:59:04.220Z,0.00
2022-11-09T03:04:04.150Z,0.00
2022-11-09T03:09:04.085Z,0.00
2022-11-09T03:14:04.017Z,0.00
2022-11-09T03:19:03.955Z,0.00
2022-11-09T03:24:03.886Z,0.00
2022-11-09T03:29:03.822Z,0.00
2022-11-09T03:34:03.747Z,0.00
2022-11-09T03:39:03.700Z,0.00
2022-11-09T03:44:03.614Z,0.00
2022-11-09T03:49:03.564Z,0.00
2022-11-09T03:54:03.482Z,0.00
2022-11-09T03:59:03.434Z,0.00
2022-11-09T04:04:03.350Z,0.00
2022-11-09T04:09:03.300Z,0.00
2022-11-09T04:14:03.217Z,0.00
2022-11-09T04:19:03.159Z,0.00
2022-11-09T04:24:03.085Z,0.00
2022-11-09T04:29:03.027Z,0.00
2022-11-09T04:34:02.953Z,0.00
2022-11-09T04:39:02.897Z,0.00
2022-11-09T04:44:02.819Z,0.00
2022-11-09T04:49:02.766Z,0.00
2022-11-09T04:54:02.688Z,0.00
2022-11-09T04:59:02.619Z,0.00
2022-11-09T05:04:02.600Z,0.00
2022-11-09T05:09:02.493Z,0.00
2022-11-09T05:14:02.431Z,0.00
2022-11-09T05:19:02.357Z,0.00
2022-11-09T05:24:02.301Z,0.00
2022-11-09T05:29:02.232Z,0.00
2022-11-09T05:34:02.171Z,0.00
2022-11-09T05:39:02.119Z,0.00
2022-11-09T05:44:02.039Z,0.00
2022-11-09T05:49:01.962Z,0.00
2022-11-09T05:54:01.906Z,0.00
2022-11-09T05:59:01.837Z,8.00
2022-11-09T06:04:01.774Z,20.00
2022-11-09T06:09:01.701Z,44.00
2022-11-09T06:14:01.643Z,36.00
2022-11-09T06:19:01.574Z,44.00
2022-11-09T06:24:01.512Z,52.00
2022-11-09T06:29:01.440Z,68.00
2022-11-09T06:34:01.383Z,100.00
2022-11-09T06:39:01.310Z,136.00
2022-11-09T06:44:01.250Z,176.00
2022-11-09T06:49:01.179Z,240.00
2022-11-09T06:54:01.126Z,244.00
2022-11-09T06:59:01.049Z,220.00
2022-11-09T07:04:00.990Z,272.00
2022-11-09T07:09:00.918Z,344.00
2022-11-09T07:14:00.861Z,364.00
2022-11-09T07:19:00.787Z,392.00
2022-11-09T07:24:00.728Z,444.00
2022-11-09T07:29:00.654Z,548.00
2022-11-09T07:34:00.596Z,656.00
2022-11-09T07:39:00.533Z,732.00
2022-11-09T07:44:00.466Z,888.00
2022-11-09T07:49:00.398Z,1252.00
2022-11-09T07:54:00.336Z,1708.00
2022-11-09T07:59:00.262Z,1664.00
2022-11-09T08:04:00.203Z,1684.00
2022-11-09T08:09:00.130Z,1740.00
2022-11-09T08:14:00.070Z,1760.00
2022-11-09T08:18:59.996Z,2104.00
2022-11-09T08:23:59.939Z,2908.00
2022-11-09T08:28:59.864Z,4372.00
2022-11-09T08:33:59.805Z,3980.00
2022-11-09T08:38:59.732Z,4992.00
2022-11-09T08:43:59.674Z,4968.00
2022-11-09T08:48:59.599Z,3984.00
2022-11-09T08:53:59.542Z,5216.00
2022-11-09T08:58:59.469Z,8520.00
2022-11-09T09:03:59.410Z,9684.00
2022-11-09T09:08:59.335Z,7172.00
2022-11-09T09:13:59.277Z,7208.00
2022-11-09T09:18:59.203Z,6444.00
2022-11-09T09:23:59.144Z,5616.00
2022-11-09T09:28:59.072Z,13396.00
2022-11-09T09:33:59.031Z,52704.00
2022-11-09T09:38:58.940Z,5508.00
2022-11-09T09:43:58.889Z,4436.00
2022-11-09T09:48:58.814Z,6984.00
2022-11-09T09:53:58.756Z,15052.00
2022-11-09T09:58:58.828Z,37216.00
2022-11-09T10:03:58.676Z,12944.00
2022-11-09T10:08:58.552Z,11008.00
2022-11-09T10:13:58.493Z,11648.00
2022-11-09T10:18:58.419Z,14616.00
2022-11-09T10:23:58.359Z,12492.00
2022-11-09T10:33:59.283Z,9688.00
2022-11-09T10:38:58.149Z,9348.00
2022-11-09T10:43:58.098Z,8044.00
2022-11-09T10:48:58.013Z,10004.00
2022-11-09T10:53:57.954Z,7176.00
2022-11-09T10:58:57.879Z,6584.00
2022-11-09T11:03:57.822Z,5256.00
2022-11-09T11:08:57.747Z,3808.00
2022-11-09T11:13:57.687Z,3692.00
2022-11-09T11:18:57.615Z,4436.00
2022-11-09T11:23:57.553Z,4520.00
2022-11-09T11:28:57.478Z,4476.00
2022-11-09T11:33:57.418Z,4192.00
2022-11-09T11:38:57.342Z,3916.00
2022-11-09T11:43:57.282Z,4488.00
2022-11-09T11:48:57.207Z,4416.00
2022-11-09T11:53:57.148Z,5700.00
2022-11-09T11:58:57.072Z,8200.00
2022-11-09T12:03:57.013Z,13876.00
2022-11-09T12:08:56.936Z,15808.00
2022-11-09T12:13:56.878Z,21056.00
2022-11-09T12:18:56.801Z,16736.00
2022-11-09T12:23:56.742Z,11100.00
2022-11-09T12:28:56.669Z,8068.00
2022-11-09T12:33:56.611Z,6636.00
2022-11-09T12:38:56.535Z,5972.00
2022-11-09T12:43:56.475Z,5716.00
2022-11-09T12:48:56.506Z,5660.00
2022-11-09T12:53:56.343Z,5144.00
2022-11-09T12:58:56.275Z,4876.00
2022-11-09T13:03:56.214Z,4880.00
2022-11-09T13:08:56.141Z,4660.00
2022-11-09T13:13:56.084Z,4688.00
2022-11-09T13:18:56.009Z,4816.00
2022-11-09T13:24:05.303Z,3192.00
2022-11-09T13:28:56.909Z,3240.00
2022-11-09T13:33:55.822Z,3832.00
2022-11-09T13:38:55.750Z,4364.00
2022-11-09T13:43:55.690Z,4012.00
2022-11-09T13:48:55.617Z,4380.00
2022-11-09T13:53:55.561Z,4064.00
2022-11-09T13:58:55.485Z,4168.00
2022-11-09T14:03:55.426Z,3880.00
2022-11-09T14:08:55.352Z,3548.00
2022-11-09T14:13:59.168Z,3312.00
2022-11-09T14:18:55.491Z,3264.00
2022-11-09T14:23:55.161Z,2676.00
2022-11-09T14:28:55.092Z,2308.00
2022-11-09T14:33:55.028Z,1920.00
2022-11-09T14:38:54.950Z,1524.00
2022-11-09T14:43:54.891Z,1392.00
2022-11-09T14:48:54.815Z,1340.00
2022-11-09T14:53:54.759Z,980.00
2022-11-09T14:58:54.683Z,884.00
2022-11-09T15:03:54.695Z,804.00
2022-11-09T15:08:54.555Z,612.00
2022-11-09T15:13:54.500Z,472.00
2022-11-09T15:18:54.420Z,344.00
2022-11-09T15:23:54.360Z,232.00
2022-11-09T15:28:54.285Z,156.00
2022-11-09T15:33:54.231Z,96.00
2022-11-09T15:38:54.163Z,56.00
2022-11-09T15:43:54.094Z,36.00
2022-11-09T15:48:54.019Z,16.00
2022-11-09T15:53:53.959Z,8.00
2022-11-09T15:58:53.882Z,4.00
2022-11-09T16:03:53.824Z,0.00
2022-11-09T16:08:53.752Z,0.00
2022-11-09T16:13:53.687Z,0.00
2022-11-09T16:18:53.617Z,0.00
2022-11-09T16:23:58.317Z,0.00
2022-11-09T16:28:53.484Z,0.00
2022-11-09T16:33:53.425Z,0.00
2022-11-09T16:38:53.352Z,0.00
2022-11-09T16:43:53.295Z,0.00
2022-11-09T16:48:53.221Z,0.00
2022-11-09T16:53:53.164Z,0.00
2022-11-09T16:58:53.094Z,0.00
2022-11-09T17:03:53.040Z,0.00
2022-11-09T17:08:52.968Z,0.00
2022-11-09T17:13:52.913Z,0.00
2022-11-09T17:18:52.836Z,0.00
2022-11-09T17:23:52.786Z,0.00
2022-11-09T17:28:52.716Z,0.00
2022-11-09T17:33:56.989Z,0.00
2022-11-09T17:38:52.585Z,0.00
2022-11-09T17:43:52.526Z,0.00
2022-11-09T17:48:52.455Z,0.00
2022-11-09T17:53:52.396Z,0.00
2022-11-09T17:58:52.326Z,0.00
2022-11-09T18:03:52.268Z,0.00
2022-11-09T18:09:19.294Z,0.00
2022-11-09T18:13:53.165Z,0.00
2022-11-09T18:18:52.065Z,0.00
2022-11-09T18:23:52.008Z,0.00
2022-11-09T18:28:51.933Z,0.00
2022-11-09T18:33:51.876Z,0.00
2022-11-09T18:38:51.821Z,0.00
2022-11-09T18:43:51.746Z,0.00
2022-11-09T18:48:51.672Z,0.00
2022-11-09T18:53:51.622Z,0.00
2022-11-09T18:58:51.544Z,0.00
2022-11-09T19:03:55.003Z,0.00
2022-11-09T19:08:51.409Z,0.00
2022-11-09T19:13:51.351Z,0.00
2022-11-09T19:18:51.278Z,0.00
2022-11-09T19:23:51.219Z,0.00
2022-11-09T19:28:51.147Z,0.00
2022-11-09T19:33:51.086Z,0.00
2022-11-09T19:38:51.015Z,0.00
2022-11-09T19:43:50.955Z,0.00
2022-11-09T19:48:50.887Z,0.00
2022-11-09T19:53:50.825Z,0.00
2022-11-09T19:58:50.757Z,0.00
2022-11-09T20:03:50.703Z,0.00
2022-11-09T20:08:50.623Z,0.00
2022-11-09T20:13:50.562Z,0.00
2022-11-09T20:18:50.489Z,0.00
2022-11-09T20:23:50.433Z,0.00
2022-11-09T20:28:50.362Z,0.00
2022-11-09T20:33:50.304Z,0.00
2022-11-09T20:38:50.231Z,0.00
2022-11-09T20:43:50.176Z,0.00
2022-11-09T20:48:54.943Z,0.00
2022-11-09T20:53:50.043Z,0.00
2022-11-09T20:58:49.975Z,0.00
2022-11-09T21:03:49.913Z,0.00
2022-11-09T21:08:49.869Z,0.00
2022-11-09T21:13:49.781Z,0.00
2022-11-09T21:18:49.709Z,0.00
2022-11-09T21:23:49.648Z,0.00
2022-11-09T21:28:49.577Z,0.00
2022-11-09T21:33:49.516Z,0.00
2022-11-09T21:38:49.445Z,0.00
2022-11-09T21:43:49.383Z,0.00
2022-11-09T21:48:49.309Z,0.00
2022-11-09T21:53:49.254Z,0.00
2022-11-09T21:58:49.180Z,0.00
2022-11-09T22:03:49.123Z,0.00
2022-11-09T22:08:49.051Z,0.00
2022-11-09T22:13:48.993Z,0.00
2022-11-09T22:18:49.872Z,0.00
2022-11-09T22:23:48.860Z,0.00
2022-11-09T22:28:48.789Z,0.00
2022-11-09T22:33:48.728Z,0.00
2022-11-09T22:38:48.655Z,0.00
2022-11-09T22:43:48.598Z,0.00
2022-11-09T22:48:48.528Z,0.00
2022-11-09T22:53:48.466Z,0.00
2022-11-09T22:58:48.392Z,0.00
2022-11-09T23:03:48.337Z,0.00
2022-11-09T23:08:48.260Z,0.00
2022-11-09T23:13:48.204Z,0.00
2022-11-09T23:18:48.129Z,0.00
2022-11-09T23:23:48.070Z,0.00
2022-11-09T23:28:48.013Z,0.00
2022-11-09T23:33:47.936Z,0.00
2022-11-09T23:38:47.864Z,0.00
2022-11-09T23:43:50.005Z,0.00
2022-11-09T23:48:47.738Z,0.00
2022-11-09T23:53:47.672Z,0.00
2022-11-09T23:58:51.299Z,0.00
